Time;durP1;ratioP1;P1;durP2;ratioP2;P2;SDS_P1;SDS_P2;PMS_P1;PMS_P2;Temp;Humidity;BMP_temperature;BMP_pressure;BME280_temperature;BME280_humidity;BME280_pressure;Samples;Min_cycle;Max_cycle;Signal;HPM_P1;HPM_P2
2023/09/05 00:01:13;;;;;;;16.40;4.00;;;;;;;17.60;47.66;100063.26;67784;1278;1016489;-65
2023/09/05 00:04:15;;;;;;;8.00;2.80;;;;;;;17.54;47.84;100061.58;67810;1278;1016461;-65
2023/09/05 00:07:18;;;;;;;10.60;3.10;;;;;;;17.50;47.91;100058.52;67766;1278;1016476;-65
2023/09/05 00:10:21;;;;;;;15.40;4.50;;;;;;;17.41;48.18;100058.79;67798;1278;1016435;-65
2023/09/05 00:13:24;;;;;;;17.10;4.80;;;;;;;17.32;48.35;100059.02;67801;1278;1016440;-65
2023/09/05 00:16:26;;;;;;;19.60;4.60;;;;;;;17.45;48.26;100055.52;67774;1278;1016484;-65
2023/09/05 00:19:29;;;;;;;16.10;4.00;;;;;;;17.42;48.32;100054.66;67761;1278;1016090;-65
2023/09/05 00:22:31;;;;;;;14.40;4.10;;;;;;;17.26;48.75;100056.97;67783;1278;1016406;-65
2023/09/05 00:25:34;;;;;;;15.70;4.30;;;;;;;17.37;48.40;100056.05;67787;1278;1016378;-65
2023/09/05 00:28:36;;;;;;;;;;;;;;;17.37;48.08;100055.20;67760;1278;1017073;-64
2023/09/05 00:31:40;;;;;;;14.40;3.90;;;;;;;17.24;48.33;100050.25;67762;1278;1016420;-64
2023/09/05 00:34:42;;;;;;;13.90;3.70;;;;;;;16.96;48.65;100054.09;67730;1278;1016422;-63
2023/09/05 00:37:46;;;;;;;10.00;3.10;;;;;;;16.84;48.75;100056.14;67733;1278;1016399;-64
2023/09/05 00:40:48;;;;;;;10.60;3.00;;;;;;;16.87;48.56;100057.88;67793;1278;1016381;-64
2023/09/05 00:43:52;;;;;;;10.80;3.10;;;;;;;16.86;48.48;100053.14;67762;1278;1016200;-65
2023/09/05 00:46:54;;;;;;;11.70;3.10;;;;;;;16.89;48.56;100050.14;67778;1278;1016318;-64
2023/09/05 00:49:57;;;;;;;10.00;3.10;;;;;;;16.97;48.50;100051.88;67750;1278;1016015;-64
2023/09/05 00:53:00;;;;;;;10.00;3.20;;;;;;;17.06;48.21;100047.96;67822;1278;1016098;-64
2023/09/05 00:56:02;;;;;;;17.10;3.70;;;;;;;17.02;48.21;100042.70;67752;1278;1018215;-63
2023/09/05 00:59:05;;;;;;;10.90;3.20;;;;;;;16.97;48.48;100042.21;67727;1278;1016419;-64
2023/09/05 01:02:07;;;;;;;15.00;4.10;;;;;;;16.96;48.59;100039.06;67780;1278;1016476;-64
2023/09/05 01:05:10;;;;;;;13.80;3.70;;;;;;;16.88;48.68;100035.84;67800;1278;1018818;-64
2023/09/05 01:08:13;;;;;;;8.60;3.00;;;;;;;16.96;48.69;100032.20;67760;1278;1016172;-64
2023/09/05 01:11:15;;;;;;;10.30;3.20;;;;;;;16.92;48.53;100030.84;67788;1278;1016410;-66
2023/09/05 01:14:17;;;;;;;13.30;3.20;;;;;;;16.84;48.55;100032.80;67740;1278;1016435;-64
2023/09/05 01:17:20;;;;;;;11.90;3.20;;;;;;;16.75;48.18;100026.99;67760;1278;1016432;-65
2023/09/05 01:20:22;;;;;;;14.00;3.70;;;;;;;16.60;48.54;100030.30;67759;1278;1016112;-64
2023/09/05 01:23:24;;;;;;;8.80;2.60;;;;;;;16.41;48.79;100030.14;67732;1278;1016403;-64
2023/09/05 01:26:27;;;;;;;8.90;2.80;;;;;;;16.33;48.51;100035.64;67759;1278;1015911;-65
2023/09/05 01:29:35;;;;;;;6.90;2.70;;;;;;;16.31;48.67;100037.87;67817;1278;1016208;-64
2023/09/05 01:32:37;;;;;;;10.30;3.20;;;;;;;16.31;48.63;100034.17;67799;1278;1016538;-64
2023/09/05 01:35:39;;;;;;;13.50;3.70;;;;;;;16.23;48.83;100037.52;67789;1278;1016221;-64
2023/09/05 01:38:42;;;;;;;13.10;4.00;;;;;;;16.35;48.76;100030.73;67794;1278;1018918;-64
2023/09/05 01:41:44;;;;;;;12.30;3.60;;;;;;;16.32;49.17;100031.13;67757;1278;1016300;-64
2023/09/05 01:44:47;;;;;;;11.60;3.30;;;;;;;16.34;49.31;100034.55;67754;1278;1016478;-64
2023/09/05 01:47:49;;;;;;;11.80;3.40;;;;;;;16.38;49.16;100035.28;67778;1278;1016435;-64
2023/09/05 01:50:51;;;;;;;13.00;3.50;;;;;;;16.43;49.00;100031.95;67783;1278;1016645;-64
2023/09/05 01:53:54;;;;;;;13.60;3.70;;;;;;;16.36;48.98;100034.75;67754;1278;1015801;-63
2023/09/05 01:56:56;;;;;;;13.90;4.30;;;;;;;16.43;49.03;100034.65;67731;1278;1015907;-62
2023/09/05 01:59:58;;;;;;;12.40;3.40;;;;;;;16.60;48.91;100032.83;67778;1278;1016461;-67
2023/09/05 02:03:01;;;;;;;11.40;3.20;;;;;;;16.52;48.47;100037.05;67766;1278;1015959;-64
2023/09/05 02:06:03;;;;;;;13.90;3.60;;;;;;;16.34;48.52;100041.92;67808;1278;1016356;-64
2023/09/05 02:09:06;;;;;;;15.80;3.80;;;;;;;16.19;48.83;100045.52;67771;1278;1016275;-64
2023/09/05 02:12:08;;;;;;;;;;;;;;;16.20;48.95;100044.41;67761;1278;1016642;-64
2023/09/05 02:15:11;;;;;;;13.60;4.00;;;;;;;16.27;49.04;100043.92;67714;1278;1016595;-65
2023/09/05 02:18:13;;;;;;;18.10;3.90;;;;;;;16.48;49.03;100041.20;67810;1278;1016767;-63
2023/09/05 02:21:16;;;;;;;12.30;3.60;;;;;;;16.68;48.45;100041.66;67807;1278;1017042;-64
2023/09/05 02:24:18;;;;;;;17.30;3.80;;;;;;;16.64;47.96;100042.40;67763;1278;1016394;-64
2023/09/05 02:27:20;;;;;;;14.60;4.10;;;;;;;16.45;48.08;100042.26;67748;1278;1016530;-64
2023/09/05 02:30:23;;;;;;;14.30;4.20;;;;;;;16.34;48.33;100045.07;67798;1278;1016320;-63
2023/09/05 02:33:25;;;;;;;16.10;4.30;;;;;;;16.23;48.75;100048.46;67788;1278;1016347;-64
2023/09/05 02:36:30;;;;;;;12.80;3.90;;;;;;;16.28;48.46;100043.57;67766;1278;1016339;-64
2023/09/05 02:39:33;;;;;;;16.40;4.10;;;;;;;16.19;48.19;100041.30;67747;1278;1016291;-64
2023/09/05 02:42:35;;;;;;;22.70;4.30;;;;;;;16.05;48.41;100043.96;67748;1278;1016144;-64
2023/09/05 02:45:38;;;;;;;19.50;4.70;;;;;;;15.94;48.68;100040.30;67791;1278;1016349;-64
2023/09/05 02:48:40;;;;;;;22.70;4.50;;;;;;;16.02;48.61;100037.45;67806;1278;1018211;-64
2023/09/05 02:51:42;;;;;;;21.30;4.50;;;;;;;16.13;48.42;100035.89;67773;1278;1016046;-64
2023/09/05 02:54:45;;;;;;;16.70;4.60;;;;;;;16.18;48.36;100031.14;67727;1278;1016450;-64
2023/09/05 02:57:47;;;;;;;23.30;5.00;;;;;;;16.08;48.33;100032.34;67761;1257;1016472;-64
2023/09/05 03:00:50;;;;;;;;;;;;;;;16.13;48.17;100034.83;67802;1278;1016463;-64
2023/09/05 03:03:52;;;;;;;17.60;4.70;;;;;;;16.10;48.10;100036.21;67788;1278;1016194;-63
2023/09/05 03:06:55;;;;;;;17.70;4.30;;;;;;;15.88;48.57;100033.73;67735;1278;1016598;-64
2023/09/05 03:09:57;;;;;;;15.60;3.90;;;;;;;15.81;48.58;100032.06;67791;1278;1016461;-64
2023/09/05 03:13:00;;;;;;;14.00;4.10;;;;;;;15.64;48.42;100029.08;67823;1278;1016418;-64
2023/09/05 03:16:02;;;;;;;12.90;3.60;;;;;;;15.53;48.52;100028.85;67779;1278;1016611;-65
2023/09/05 03:19:04;;;;;;;14.50;4.30;;;;;;;15.59;48.41;100029.19;67780;1278;1015792;-63
2023/09/05 03:22:07;;;;;;;14.00;3.90;;;;;;;15.64;48.42;100029.60;67773;1278;1016523;-63
2023/09/05 03:25:09;;;;;;;17.30;4.30;;;;;;;15.66;48.45;100032.80;67765;1278;1017059;-64
2023/09/05 03:28:12;;;;;;;16.40;4.30;;;;;;;15.68;48.46;100033.25;67777;1278;1016384;-64
2023/09/05 03:31:14;;;;;;;16.70;4.10;;;;;;;15.73;48.62;100043.13;67788;1278;1016350;-63
2023/09/05 03:34:17;;;;;;;15.90;3.80;;;;;;;15.81;48.54;100037.39;67710;1278;1016423;-63
2023/09/05 03:37:19;;;;;;;16.60;4.00;;;;;;;15.93;48.50;100040.13;67759;1278;1017058;-64
2023/09/05 03:40:21;;;;;;;16.20;3.90;;;;;;;16.09;48.03;100038.75;67741;1278;1016498;-64
2023/09/05 03:43:24;;;;;;;13.90;3.90;;;;;;;15.72;48.23;100039.68;67792;1278;1016517;-64
2023/09/05 03:46:26;;;;;;;12.60;3.60;;;;;;;15.42;48.81;100039.80;67825;1278;1018498;-64
2023/09/05 03:49:29;;;;;;;15.30;3.70;;;;;;;15.39;48.85;100042.77;67743;1278;1016520;-64
2023/09/05 03:52:31;;;;;;;14.60;3.80;;;;;;;15.42;48.80;100042.61;67784;1278;1016460;-64
2023/09/05 03:55:34;;;;;;;15.70;4.20;;;;;;;15.42;48.80;100042.44;67792;1278;1016120;-64
2023/09/05 03:58:37;;;;;;;16.70;4.30;;;;;;;15.58;48.99;100042.86;67781;1278;1015994;-63
2023/09/05 04:01:39;;;;;;;18.00;4.50;;;;;;;15.68;48.75;100043.83;67807;1278;1016442;-64
2023/09/05 04:04:41;;;;;;;18.70;4.30;;;;;;;15.78;48.50;100043.36;67780;1278;1016483;-63
2023/09/05 04:07:44;;;;;;;20.70;4.90;;;;;;;15.72;48.42;100043.73;67763;1278;1016431;-63
2023/09/05 04:10:46;;;;;;;21.60;5.50;;;;;;;15.73;48.41;100042.24;67804;1278;1016208;-64
2023/09/05 04:13:48;;;;;;;26.70;5.70;;;;;;;15.62;48.75;100048.43;67817;1278;1016364;-63
2023/09/05 04:16:51;;;;;;;25.40;6.70;;;;;;;15.70;48.65;100052.51;67825;1278;1017993;-64
2023/09/05 04:19:54;;;;;;;24.70;6.50;;;;;;;15.59;48.61;100057.02;67735;1278;1016473;-63
2023/09/05 04:22:57;;;;;;;25.30;7.30;;;;;;;15.45;48.73;100065.14;67831;1278;1016445;-63
2023/09/05 04:25:59;;;;;;;26.10;6.80;;;;;;;15.33;49.23;100064.79;67816;1278;1016489;-63
2023/09/05 04:29:02;;;;;;;;;;;;;;;15.39;49.10;100064.12;67767;1278;1016170;-65
2023/09/05 04:32:04;;;;;;;22.30;6.20;;;;;;;15.48;49.11;100064.59;67781;1278;1018997;-64
2023/09/05 04:35:06;;;;;;;26.30;7.50;;;;;;;15.67;49.02;100064.85;67785;1278;1016395;-64
2023/09/05 04:38:10;;;;;;;24.30;7.30;;;;;;;15.79;48.80;100067.80;67818;1278;1016418;-64
2023/09/05 04:41:12;;;;;;;26.20;7.50;;;;;;;15.98;48.79;100065.25;67785;1278;1016439;-64
2023/09/05 04:44:15;;;;;;;31.00;8.20;;;;;;;16.17;48.67;100065.26;67765;1278;1015710;-63
2023/09/05 04:47:17;;;;;;;;;;;;;;;16.33;48.72;100067.41;67843;1278;1016889;-64
2023/09/05 04:50:20;;;;;;;29.40;8.40;;;;;;;16.39;48.41;100070.36;67824;1278;1016500;-63
2023/09/05 04:53:22;;;;;;;25.20;7.70;;;;;;;16.48;48.54;100064.85;67783;1278;1016365;-63
2023/09/05 04:56:24;;;;;;;25.10;7.50;;;;;;;16.59;48.45;100064.11;67786;1278;1018717;-64
2023/09/05 04:59:27;;;;;;;25.40;7.70;;;;;;;16.62;48.60;100064.77;67792;1278;1016679;-64
2023/09/05 05:02:31;;;;;;;23.50;7.40;;;;;;;16.75;48.44;100063.90;67808;1278;1015930;-64
2023/09/05 05:05:34;;;;;;;25.40;7.20;;;;;;;16.93;48.38;100065.75;67800;1278;1016346;-64
2023/09/05 05:08:36;;;;;;;25.30;8.00;;;;;;;17.27;48.16;100064.71;67834;1278;1016649;-64
2023/09/05 05:11:38;;;;;;;25.80;7.80;;;;;;;17.51;48.52;100064.64;67745;1278;1016459;-64
2023/09/05 05:14:41;;;;;;;26.70;9.60;;;;;;;17.85;48.36;100064.54;67760;1278;1018173;-64
2023/09/05 05:17:43;;;;;;;28.10;10.10;;;;;;;18.09;48.55;100064.80;67838;1278;1016426;-64
2023/09/05 05:20:46;;;;;;;29.20;10.50;;;;;;;18.31;48.55;100067.97;67828;1278;1016631;-64
2023/09/05 05:23:48;;;;;;;29.40;10.00;;;;;;;18.48;48.57;100068.67;67825;1278;1016488;-64
2023/09/05 05:26:51;;;;;;;29.60;10.10;;;;;;;18.74;48.69;100065.62;67763;1278;1016001;-65
2023/09/05 05:29:53;;;;;;;27.40;10.40;;;;;;;19.15;48.39;100062.08;67790;1278;1016465;-65
2023/09/05 05:32:55;;;;;;;27.40;11.00;;;;;;;19.51;48.16;100061.27;67844;1278;1016534;-61
2023/09/05 05:35:58;;;;;;;;;;;;;;;19.64;48.16;100062.10;67818;1278;1016409;-64
2023/09/05 05:39:00;;;;;;;30.40;10.90;;;;;;;19.84;48.02;100066.98;67782;1278;1018010;-64
2023/09/05 05:42:03;;;;;;;29.60;10.70;;;;;;;20.06;48.28;100072.10;67786;1278;1016086;-64
2023/09/05 05:45:06;;;;;;;28.90;10.80;;;;;;;20.38;48.56;100067.07;67864;1278;1015837;-64
2023/09/05 05:48:10;;;;;;;25.30;9.50;;;;;;;20.67;48.52;100066.95;67773;1278;1016498;-64
2023/09/05 05:51:13;;;;;;;25.80;9.80;;;;;;;20.83;48.72;100069.71;67770;1278;1016486;-64
2023/09/05 05:54:15;;;;;;;;;;;;;;;21.17;48.39;100071.16;67798;1278;1016402;-65
2023/09/05 05:57:18;;;;;;;26.70;10.80;;;;;;;21.55;48.03;100066.49;67831;1278;1016205;-65
2023/09/05 06:00:20;;;;;;;26.50;10.80;;;;;;;21.87;47.82;100067.76;67858;1278;1016310;-65
2023/09/05 06:03:22;;;;;;;26.30;9.80;;;;;;;22.05;47.70;100073.64;67822;1278;1016225;-64
2023/09/05 06:06:25;;;;;;;;;;;;;;;22.00;48.13;100071.61;67654;1278;1016387;-65
2023/09/05 06:09:27;;;;;;;27.40;9.70;;;;;;;22.07;48.46;100069.02;67789;1278;1016043;-64
2023/09/05 06:12:30;;;;;;;24.90;10.10;;;;;;;22.36;48.36;100064.15;67826;1278;1016256;-65
2023/09/05 06:15:32;;;;;;;28.30;10.80;;;;;;;22.53;48.15;100065.28;67830;1278;1016301;-65
2023/09/05 06:18:35;;;;;;;;;;;;;;;22.76;48.06;100065.68;67781;1278;1016515;-65
2023/09/05 06:21:37;;;;;;;29.00;11.70;;;;;;;23.15;47.95;100061.85;67795;1278;1016220;-65
2023/09/05 06:24:39;;;;;;;29.80;12.30;;;;;;;23.50;47.29;100061.80;67781;1278;1016403;-65
2023/09/05 06:27:43;;;;;;;;;;;;;;;23.82;47.56;100062.35;67813;1278;1016475;-65
2023/09/05 06:30:45;;;;;;;29.20;9.90;;;;;;;24.31;47.43;100063.09;67788;1278;1016439;-64
2023/09/05 06:33:48;;;;;;;22.30;6.90;;;;;;;24.66;46.68;100061.73;67793;1278;1016842;-64
2023/09/05 06:36:51;;;;;;;26.10;8.40;;;;;;;24.80;46.36;100060.54;67806;1278;1016485;-65
2023/09/05 06:39:54;;;;;;;26.70;8.90;;;;;;;25.01;46.22;100058.21;67794;1278;1016427;-65
2023/09/05 06:42:56;;;;;;;26.30;8.20;;;;;;;25.14;45.91;100052.65;67846;1278;1018406;-65
2023/09/05 06:45:58;;;;;;;;;;;;;;;25.41;45.81;100048.77;67841;1278;1016205;-65
2023/09/05 06:49:01;;;;;;;21.40;7.70;;;;;;;25.61;45.50;100049.58;67727;1278;1016062;-62
2023/09/05 06:52:03;;;;;;;;;;;;;;;25.89;45.32;100048.08;67748;1278;1016080;-64
2023/09/05 06:55:06;;;;;;;24.50;7.50;;;;;;;26.19;44.71;100044.08;67772;1278;1016378;-63
2023/09/05 06:58:08;;;;;;;;;;;;;;;26.42;44.95;100047.33;67813;1278;1016456;-64
2023/09/05 07:01:12;;;;;;;23.00;7.80;;;;;;;26.70;44.47;100051.69;67822;1278;1016196;-65
2023/09/05 07:04:15;;;;;;;24.20;7.50;;;;;;;26.92;44.36;100050.85;67814;1278;1016486;-65
2023/09/05 07:07:17;;;;;;;;;;;;;;;27.32;44.56;100047.20;67811;1278;1016310;-64
2023/09/05 07:10:20;;;;;;;22.30;6.00;;;;;;;27.73;43.85;100044.17;67795;1278;1017127;-64
2023/09/05 07:13:22;;;;;;;18.70;5.50;;;;;;;28.09;42.63;100040.39;67793;1278;1016379;-64
2023/09/05 07:16:24;;;;;;;21.80;5.60;;;;;;;28.27;42.76;100042.94;67774;1278;1018629;-65
2023/09/05 07:19:29;;;;;;;20.90;5.20;;;;;;;28.57;41.85;100040.98;67826;1278;1016464;-64
2023/09/05 07:22:31;;;;;;;19.90;5.70;;;;;;;28.77;41.97;100046.52;67820;1278;1016406;-64
2023/09/05 07:25:35;;;;;;;17.80;5.40;;;;;;;29.07;41.37;100045.12;67810;1278;1016236;-65
2023/09/05 07:28:37;;;;;;;19.90;5.30;;;;;;;29.32;41.03;100046.53;67817;1278;1016451;-65
2023/09/05 07:31:40;;;;;;;15.90;4.80;;;;;;;29.55;41.10;100045.35;67768;1278;1016413;-65
2023/09/05 07:34:42;;;;;;;21.70;5.40;;;;;;;29.73;40.73;100036.86;67783;1278;1016881;-65
2023/09/05 07:37:44;;;;;;;15.80;4.30;;;;;;;29.98;39.93;100034.30;67764;1278;1016414;-65
2023/09/05 07:40:47;;;;;;;15.50;4.50;;;;;;;29.90;39.43;100035.83;67832;1278;1016073;-62
2023/09/05 07:43:50;;;;;;;15.90;4.40;;;;;;;29.95;39.64;100034.18;67781;1278;1016405;-65
2023/09/05 07:46:52;;;;;;;17.10;5.70;;;;;;;30.30;39.66;100036.97;67762;1278;1016479;-65
2023/09/05 07:49:54;;;;;;;17.50;4.90;;;;;;;30.68;39.41;100036.62;67809;1278;1016400;-66
2023/09/05 07:52:57;;;;;;;17.90;4.90;;;;;;;30.98;38.85;100039.69;67795;1278;1016396;-65
2023/09/05 07:55:59;;;;;;;18.50;5.30;;;;;;;31.17;38.17;100038.80;67820;1278;1016729;-65
2023/09/05 07:59:02;;;;;;;17.70;4.70;;;;;;;31.19;37.88;100041.14;67788;1278;1016153;-64
2023/09/05 08:02:05;;;;;;;18.20;5.50;;;;;;;31.43;38.00;100040.52;67817;1278;1017686;-63
2023/09/05 08:05:07;;;;;;;16.90;5.00;;;;;;;31.51;38.07;100035.69;67810;1278;1016247;-64
2023/09/05 08:08:10;;;;;;;16.40;4.90;;;;;;;31.78;37.13;100032.57;67784;1278;1016389;-62
2023/09/05 08:11:12;;;;;;;19.60;5.20;;;;;;;31.60;36.77;100037.38;67756;1278;1016558;-65
2023/09/05 08:14:14;;;;;;;17.90;5.10;;;;;;;31.49;36.52;100040.47;67768;1278;1016190;-65
2023/09/05 08:17:17;;;;;;;17.20;5.00;;;;;;;31.68;36.87;100038.05;67831;1278;1016587;-62
2023/09/05 08:20:20;;;;;;;17.30;4.70;;;;;;;31.95;36.41;100037.34;67818;1278;1016360;-64
2023/09/05 08:23:23;;;;;;;16.00;4.60;;;;;;;32.19;35.80;100029.99;67822;1278;1016400;-65
2023/09/05 08:26:25;;;;;;;14.00;3.80;;;;;;;32.43;36.23;100026.89;67752;1278;1016410;-65
2023/09/05 08:29:27;;;;;;;16.70;4.40;;;;;;;32.39;35.75;100026.88;67827;1278;1016201;-64
2023/09/05 08:32:31;;;;;;;14.10;4.20;;;;;;;32.36;35.65;100025.63;67798;1278;1016257;-65
2023/09/05 08:35:33;;;;;;;14.30;4.30;;;;;;;32.54;35.27;100026.84;67819;1278;1016835;-65
2023/09/05 08:38:37;;;;;;;17.80;4.50;;;;;;;32.63;35.02;100027.16;67834;1278;1016303;-65
2023/09/05 08:41:39;;;;;;;15.70;4.80;;;;;;;32.71;35.23;100027.58;67839;1278;1016469;-65
2023/09/05 08:44:42;;;;;;;14.30;4.10;;;;;;;32.81;35.37;100028.22;67811;1278;1016461;-65
2023/09/05 08:47:44;;;;;;;17.40;4.90;;;;;;;33.11;34.82;100027.95;67781;1278;1016457;-63
2023/09/05 08:54:10;;;;;;;15.30;4.90;;;;;;;33.34;33.92;100028.48;67780;1278;1016726;-64
2023/09/05 08:57:17;;;;;;;14.20;4.10;;;;;;;33.18;32.88;100027.81;67795;1278;1016894;-64
2023/09/05 09:00:21;;;;;;;14.60;4.10;;;;;;;32.98;32.85;100030.77;67791;1278;1016440;-64
2023/09/05 09:03:24;;;;;;;17.50;4.40;;;;;;;32.91;33.22;100026.31;67820;1278;1016362;-65
2023/09/05 09:06:26;;;;;;;15.90;4.70;;;;;;;32.93;33.73;100024.27;67814;1278;1016479;-65
2023/09/05 09:09:29;;;;;;;17.90;4.60;;;;;;;33.13;33.24;100016.59;67765;1278;1016362;-65
2023/09/05 09:12:32;;;;;;;13.70;4.10;;;;;;;33.33;33.24;100015.21;67816;1278;1016468;-65
2023/09/05 09:15:34;;;;;;;13.40;4.00;;;;;;;33.63;33.17;100015.27;67774;1278;1016417;-65
2023/09/05 09:18:40;;;;;;;12.00;3.80;;;;;;;33.96;32.45;100010.17;67775;1278;1016393;-65
2023/09/05 09:21:43;;;;;;;13.70;3.90;;;;;;;34.07;32.57;100009.27;67784;1278;1016257;-65
2023/09/05 09:24:46;;;;;;;14.30;4.10;;;;;;;34.14;32.30;100008.05;67822;1278;1016356;-65
2023/09/05 09:27:48;;;;;;;14.20;3.80;;;;;;;34.02;31.61;100006.30;67834;1278;1016605;-65
2023/09/05 09:30:50;;;;;;;12.90;4.10;;;;;;;34.00;31.52;100005.69;67796;1278;1016269;-65
2023/09/05 09:33:53;;;;;;;15.00;4.60;;;;;;;34.16;31.47;100012.35;67784;1278;1016498;-66
2023/09/05 09:36:55;;;;;;;14.80;4.20;;;;;;;34.36;31.55;100012.70;67765;1278;1016790;-65
2023/09/05 09:39:58;;;;;;;15.80;4.40;;;;;;;34.59;31.11;100012.05;67832;1278;1016735;-65
2023/09/05 09:43:00;;;;;;;14.30;4.20;;;;;;;34.85;30.87;100009.63;67795;1278;1016457;-65
2023/09/05 09:46:04;;;;;;;14.40;4.00;;;;;;;34.87;29.57;100006.20;67812;1278;1018592;-65
2023/09/05 09:49:06;;;;;;;11.80;3.80;;;;;;;34.70;29.87;100006.41;67796;1278;1016377;-66
2023/09/05 09:52:10;;;;;;;11.60;3.60;;;;;;;34.60;29.22;100007.17;67791;1278;1016611;-65
2023/09/05 09:55:13;;;;;;;11.00;3.50;;;;;;;34.08;29.82;100002.15;67797;1278;1016318;-65
2023/09/05 09:58:18;;;;;;;12.40;3.70;;;;;;;34.00;29.63;100001.58;67808;1278;1016554;-64
2023/09/05 10:01:20;;;;;;;13.70;3.60;;;;;;;33.96;29.27;99996.67;67821;1278;1016523;-65
2023/09/05 10:04:23;;;;;;;13.90;3.80;;;;;;;34.16;30.33;99990.87;67811;1278;1016646;-64
2023/09/05 10:07:25;;;;;;;16.30;3.60;;;;;;;34.35;30.51;99992.22;67797;1278;1017256;-65
2023/09/05 10:10:27;;;;;;;14.60;3.70;;;;;;;34.57;30.00;99993.17;67757;1278;1016363;-65
2023/09/05 10:13:33;;;;;;;12.90;3.80;;;;;;;34.82;29.66;100001.73;67739;1278;1016528;-66
2023/09/05 10:16:35;;;;;;;11.50;4.00;;;;;;;34.92;28.86;99998.66;67709;1278;1016106;-65
2023/09/05 10:19:38;;;;;;;13.20;3.70;;;;;;;34.89;29.58;99999.17;67777;1278;1016045;-65
2023/09/05 10:22:40;;;;;;;11.90;3.90;;;;;;;35.31;29.19;99998.38;67792;1278;1016844;-65
2023/09/05 10:25:42;;;;;;;10.90;3.60;;;;;;;35.16;27.84;99997.21;67839;1278;1016161;-65
2023/09/05 10:28:45;;;;;;;13.30;3.90;;;;;;;34.90;28.09;99998.18;67797;1278;1016399;-65
2023/09/05 10:31:47;;;;;;;13.10;4.20;;;;;;;35.22;29.26;99990.79;67648;1278;1016083;-65
2023/09/05 10:34:50;;;;;;;14.70;3.60;;;;;;;35.65;28.84;99989.64;67710;1278;1016346;-65
2023/09/05 10:37:52;;;;;;;11.70;3.80;;;;;;;35.96;28.56;99981.09;67744;1278;1016454;-65
2023/09/05 10:40:55;;;;;;;12.80;3.80;;;;;;;36.06;28.37;99981.02;67763;1278;1018344;-65
2023/09/05 10:43:57;;;;;;;12.40;4.10;;;;;;;36.15;27.58;99978.39;67700;1278;1016390;-65
2023/09/05 10:47:00;;;;;;;15.10;3.70;;;;;;;35.63;27.54;99977.38;67792;1278;1017236;-65
2023/09/05 10:50:02;;;;;;;12.30;3.90;;;;;;;34.87;27.32;99976.38;67816;1278;1016403;-65
2023/09/05 10:53:04;;;;;;;14.00;4.10;;;;;;;34.35;27.78;99973.41;67835;1278;1016776;-65
2023/09/05 10:56:07;;;;;;;12.60;3.60;;;;;;;34.59;28.53;99975.59;67799;1278;1015694;-65
2023/09/05 10:59:10;;;;;;;10.90;3.70;;;;;;;35.07;28.22;99974.21;67785;1278;1016177;-66
2023/09/05 11:02:12;;;;;;;15.60;4.00;;;;;;;34.79;28.19;99972.09;67830;1278;1016703;-66
2023/09/05 11:05:18;;;;;;;13.30;3.80;;;;;;;34.86;28.07;99965.31;67700;1280;1016491;-65
2023/09/05 11:08:21;;;;;;;12.40;3.40;;;;;;;35.31;27.27;99962.21;67682;1280;1017130;-65
2023/09/05 11:11:23;;;;;;;13.30;4.30;;;;;;;35.60;27.19;99953.81;67656;1280;1018817;-65
2023/09/05 11:14:26;;;;;;;11.40;3.90;;;;;;;35.16;26.94;99952.02;67664;1280;1016984;-65
2023/09/05 11:17:28;;;;;;;11.10;3.90;;;;;;;34.89;27.27;99947.59;67618;1280;1016402;-65
2023/09/05 11:20:32;;;;;;;13.70;3.70;;;;;;;34.99;27.83;99946.01;67678;1280;1016488;-65
2023/09/05 11:23:34;;;;;;;12.10;3.60;;;;;;;35.69;28.10;99941.61;67574;1280;1016315;-65
2023/09/05 11:26:37;;;;;;;13.10;4.00;;;;;;;36.23;27.95;99934.84;67688;1280;1016323;-65
2023/09/05 11:29:40;;;;;;;11.90;3.90;;;;;;;36.70;27.55;99927.68;67715;1280;1016469;-65
2023/09/05 11:32:45;;;;;;;14.30;3.90;;;;;;;36.86;26.95;99919.53;67652;1280;1016735;-65
2023/09/05 11:35:49;;;;;;;14.00;3.70;;;;;;;37.06;27.41;99917.37;67677;1280;1016764;-65
2023/09/05 11:38:52;;;;;;;13.60;3.80;;;;;;;37.18;27.01;99916.20;67706;1280;1016808;-65
2023/09/05 11:41:58;;;;;;;14.60;3.70;;;;;;;37.18;26.24;99909.85;67704;1280;1016802;-66
2023/09/05 11:45:00;;;;;;;12.00;3.70;;;;;;;37.07;26.80;99907.98;67660;1279;1016263;-65
2023/09/05 11:48:03;;;;;;;14.40;4.20;;;;;;;37.25;26.74;99903.92;67672;1279;1016510;-65
2023/09/05 11:51:05;;;;;;;11.30;3.70;;;;;;;37.28;25.67;99898.84;67690;1279;1016521;-65
2023/09/05 11:54:07;;;;;;;13.40;3.80;;;;;;;37.37;26.80;99894.85;67664;1280;1016442;-65
2023/09/05 11:57:10;;;;;;;12.40;3.70;;;;;;;37.65;26.38;99891.98;67656;1279;1016016;-65
2023/09/05 12:00:15;;;;;;;15.20;3.60;;;;;;;37.60;25.82;99889.73;67680;1280;1016519;-65
2023/09/05 12:03:17;;;;;;;12.50;3.50;;;;;;;37.31;25.86;99887.08;67707;1278;1018241;-65
2023/09/05 12:06:24;;;;;;;12.60;3.80;;;;;;;37.34;26.30;99881.57;67790;1278;1019207;-65
2023/09/05 12:09:26;;;;;;;12.20;4.10;;;;;;;37.72;26.09;99886.21;67774;1278;1016380;-65
2023/09/05 12:12:28;;;;;;;13.60;4.30;;;;;;;38.06;25.68;99879.23;67779;1278;1016377;-64
2023/09/05 12:15:31;;;;;;;14.80;4.10;;;;;;;38.17;25.37;99874.84;67770;1278;1016290;-65
2023/09/05 12:18:33;;;;;;;14.70;4.30;;;;;;;38.06;25.81;99863.95;67846;1278;1016339;-64
2023/09/05 12:21:36;;;;;;;12.20;4.00;;;;;;;38.24;25.26;99864.89;67837;1278;1016114;-65
2023/09/05 12:24:38;;;;;;;12.60;3.80;;;;;;;38.37;24.82;99860.98;67782;1278;1016622;-65
2023/09/05 12:27:40;;;;;;;12.00;4.00;;;;;;;38.23;24.57;99856.64;67733;1278;1016320;-65
2023/09/05 12:30:43;;;;;;;9.50;3.60;;;;;;;37.92;24.87;99853.65;67782;1278;1016388;-65
2023/09/05 12:33:46;;;;;;;14.60;3.90;;;;;;;37.78;25.49;99851.92;67809;1278;1016299;-65
2023/09/05 12:36:50;;;;;;;12.70;3.90;;;;;;;37.89;25.84;99853.50;67785;1278;1018397;-65
2023/09/05 12:39:56;;;;;;;10.70;3.80;;;;;;;37.90;25.28;99850.17;67789;1278;1016691;-65
2023/09/05 12:42:59;;;;;;;10.10;3.30;;;;;;;37.83;24.49;99847.17;67776;1278;1016455;-65
2023/09/05 12:46:03;;;;;;;10.80;3.60;;;;;;;37.91;24.94;99849.16;67819;1278;1016444;-65
2023/09/05 12:49:05;;;;;;;10.40;3.40;;;;;;;38.13;24.24;99848.34;67816;1278;1015715;-65
2023/09/05 12:52:07;;;;;;;12.30;3.60;;;;;;;37.54;23.95;99844.23;67821;1276;1017966;-65
2023/09/05 12:55:10;;;;;;;12.80;3.70;;;;;;;37.67;24.85;99831.98;67797;1278;1017905;-64
2023/09/05 12:58:13;;;;;;;13.60;3.70;;;;;;;37.82;24.62;99822.52;67804;1278;1018370;-64
2023/09/05 13:01:15;;;;;;;14.00;3.80;;;;;;;38.00;24.86;99820.46;67754;1278;1018394;-65
2023/09/05 13:04:19;;;;;;;10.60;3.50;;;;;;;38.08;24.49;99819.34;67828;1278;1016640;-65
2023/09/05 13:07:23;;;;;;;14.50;3.80;;;;;;;37.91;24.38;99815.30;67809;1278;1016383;-65
2023/09/05 13:10:25;;;;;;;9.90;3.50;;;;;;;37.88;24.26;99814.27;67786;1278;1016435;-65
2023/09/05 13:13:27;;;;;;;10.50;3.30;;;;;;;37.80;24.23;99813.42;67797;1278;1016494;-65
2023/09/05 13:16:30;;;;;;;13.80;4.50;;;;;;;37.89;24.40;99812.32;67830;1278;1017086;-64
2023/09/05 13:19:33;;;;;;;11.30;3.60;;;;;;;38.07;23.83;99812.52;67818;1278;1016774;-64
2023/09/05 13:22:36;;;;;;;14.30;3.60;;;;;;;37.90;23.79;99811.96;67840;1278;1016453;-65
2023/09/05 13:25:38;;;;;;;10.80;3.10;;;;;;;38.01;23.10;99809.27;67864;1256;1018604;-65
2023/09/05 13:28:41;;;;;;;9.40;3.60;;;;;;;38.14;23.80;99809.53;67818;1278;1016386;-65
2023/09/05 13:31:43;;;;;;;10.80;3.40;;;;;;;38.04;23.31;99807.30;67776;1278;1016460;-65
2023/09/05 13:34:45;;;;;;;12.90;3.60;;;;;;;37.65;22.94;99804.54;67787;1278;1016080;-65
2023/09/05 13:37:48;;;;;;;10.80;3.30;;;;;;;37.15;23.59;99801.46;67820;1278;1016009;-65
2023/09/05 13:40:50;;;;;;;11.40;3.50;;;;;;;37.31;24.32;99799.13;67806;1278;1016869;-64
2023/09/05 13:43:53;;;;;;;10.80;3.40;;;;;;;37.61;24.02;99802.00;67823;1278;1016307;-65
2023/09/05 13:46:55;;;;;;;10.80;3.40;;;;;;;37.59;22.98;99801.05;67791;1278;1016530;-65
2023/09/05 13:49:57;;;;;;;11.60;3.80;;;;;;;37.80;23.35;99800.34;67769;1278;1016500;-65